sensor_id;sensor_type;location;lat;lon;timestamp;temperature;humidity
66422;DHT22;53228;51.380;0.098;2022-09-29T00:01:08;7.10;99.90
66422;DHT22;53228;51.380;0.098;2022-09-29T00:03:36;7.10;99.90
66422;DHT22;53228;51.380;0.098;2022-09-29T00:06:14;7.10;99.90
66422;DHT22;53228;51.380;0.098;2022-09-29T00:08:43;7.10;99.90
66422;DHT22;53228;51.380;0.098;2022-09-29T00:11:13;7.20;99.90
66422;DHT22;53228;51.380;0.098;2022-09-29T00:13:43;7.10;99.90
66422;DHT22;53228;51.380;0.098;2022-09-29T00:16:11;7.20;99.90
66422;DHT22;53228;51.380;0.098;2022-09-29T00:18:39;8.40;99.90
66422;DHT22;53228;51.380;0.098;2022-09-29T00:21:13;7.00;99.90
66422;DHT22;53228;51.380;0.098;2022-09-29T00:23:41;7.10;99.90
66422;DHT22;53228;51.380;0.098;2022-09-29T00:26:15;7.10;99.90
66422;DHT22;53228;51.380;0.098;2022-09-29T00:28:52;7.10;99.90
66422;DHT22;53228;51.380;0.098;2022-09-29T00:31:20;7.10;99.90
66422;DHT22;53228;51.380;0.098;2022-09-29T00:33:48;7.00;99.90
66422;DHT22;53228;51.380;0.098;2022-09-29T00:36:18;7.00;99.90
66422;DHT22;53228;51.380;0.098;2022-09-29T00:38:47;7.00;99.90
66422;DHT22;53228;51.380;0.098;2022-09-29T00:41:21;7.00;99.90
66422;DHT22;53228;51.380;0.098;2022-09-29T00:46:32;6.90;99.90
66422;DHT22;53228;51.380;0.098;2022-09-29T00:49:06;6.90;99.90
66422;DHT22;53228;51.380;0.098;2022-09-29T00:51:36;6.90;99.90
66422;DHT22;53228;51.380;0.098;2022-09-29T00:54:06;6.80;99.90
66422;DHT22;53228;51.380;0.098;2022-09-29T00:56:37;6.80;99.90
66422;DHT22;53228;51.380;0.098;2022-09-29T00:59:09;6.80;99.90
66422;DHT22;53228;51.380;0.098;2022-09-29T01:01:38;6.80;99.90
66422;DHT22;53228;51.380;0.098;2022-09-29T01:04:11;6.80;99.90
66422;DHT22;53228;51.380;0.098;2022-09-29T01:06:48;6.70;99.90
66422;DHT22;53228;51.380;0.098;2022-09-29T01:09:19;6.70;99.90
66422;DHT22;53228;51.380;0.098;2022-09-29T01:11:49;6.60;99.90
66422;DHT22;53228;51.380;0.098;2022-09-29T01:14:25;6.70;99.90
66422;DHT22;53228;51.380;0.098;2022-09-29T01:16:53;6.60;99.90
66422;DHT22;53228;51.380;0.098;2022-09-29T01:30:06;6.70;99.90
66422;DHT22;53228;51.380;0.098;2022-09-29T01:32:43;6.70;99.90
66422;DHT22;53228;51.380;0.098;2022-09-29T01:35:27;6.70;99.90
66422;DHT22;53228;51.380;0.098;2022-09-29T01:40:53;6.70;99.90
66422;DHT22;53228;51.380;0.098;2022-09-29T01:43:36;6.70;99.90
66422;DHT22;53228;51.380;0.098;2022-09-29T01:46:23;6.60;99.90
66422;DHT22;53228;51.380;0.098;2022-09-29T01:48:55;6.60;99.90
66422;DHT22;53228;51.380;0.098;2022-09-29T01:51:29;6.60;99.90
66422;DHT22;53228;51.380;0.098;2022-09-29T01:54:01;6.50;99.90
66422;DHT22;53228;51.380;0.098;2022-09-29T01:56:39;6.60;99.90
66422;DHT22;53228;51.380;0.098;2022-09-29T01:59:17;6.50;99.90
66422;DHT22;53228;51.380;0.098;2022-09-29T02:01:47;6.60;99.90
66422;DHT22;53228;51.380;0.098;2022-09-29T02:04:20;6.60;99.90
66422;DHT22;53228;51.380;0.098;2022-09-29T02:06:56;8.90;99.90
66422;DHT22;53228;51.380;0.098;2022-09-29T02:09:33;6.50;99.90
66422;DHT22;53228;51.380;0.098;2022-09-29T02:12:02;7.80;99.90
66422;DHT22;53228;51.380;0.098;2022-09-29T02:14:44;6.40;99.90
66422;DHT22;53228;51.380;0.098;2022-09-29T02:17:21;6.40;99.90
66422;DHT22;53228;51.380;0.098;2022-09-29T02:19:51;6.30;99.90
66422;DHT22;53228;51.380;0.098;2022-09-29T02:22:19;6.40;99.90
66422;DHT22;53228;51.380;0.098;2022-09-29T02:24:48;6.30;99.90
66422;DHT22;53228;51.380;0.098;2022-09-29T02:27:20;6.30;99.90
66422;DHT22;53228;51.380;0.098;2022-09-29T02:29:48;6.20;99.90
66422;DHT22;53228;51.380;0.098;2022-09-29T02:32:16;6.20;99.90
66422;DHT22;53228;51.380;0.098;2022-09-29T02:34:46;6.30;99.90
66422;DHT22;53228;51.380;0.098;2022-09-29T02:40:14;6.20;99.90
66422;DHT22;53228;51.380;0.098;2022-09-29T02:50:48;6.30;99.90
66422;DHT22;53228;51.380;0.098;2022-09-29T02:58:43;6.20;99.90
66422;DHT22;53228;51.380;0.098;2022-09-29T03:01:14;6.20;99.90
66422;DHT22;53228;51.380;0.098;2022-09-29T03:03:43;6.10;99.90
66422;DHT22;53228;51.380;0.098;2022-09-29T03:06:12;6.10;99.90
66422;DHT22;53228;51.380;0.098;2022-09-29T03:08:40;6.40;99.90
66422;DHT22;53228;51.380;0.098;2022-09-29T03:11:07;6.10;99.90
66422;DHT22;53228;51.380;0.098;2022-09-29T03:13:35;6.10;99.90
66422;DHT22;53228;51.380;0.098;2022-09-29T03:16:03;6.10;99.90
66422;DHT22;53228;51.380;0.098;2022-09-29T03:18:30;7.20;99.90
66422;DHT22;53228;51.380;0.098;2022-09-29T03:20:58;6.00;99.90
66422;DHT22;53228;51.380;0.098;2022-09-29T03:23:26;6.00;99.90
66422;DHT22;53228;51.380;0.098;2022-09-29T03:28:21;6.00;99.90
66422;DHT22;53228;51.380;0.098;2022-09-29T03:33:16;5.90;99.90
66422;DHT22;53228;51.380;0.098;2022-09-29T03:35:44;5.90;99.90
66422;DHT22;53228;51.380;0.098;2022-09-29T03:38:12;6.00;99.90
66422;DHT22;53228;51.380;0.098;2022-09-29T03:40:39;6.20;99.90
66422;DHT22;53228;51.380;0.098;2022-09-29T03:43:07;7.30;99.90
66422;DHT22;53228;51.380;0.098;2022-09-29T03:45:34;5.90;99.90
66422;DHT22;53228;51.380;0.098;2022-09-29T03:48:02;5.90;99.90
66422;DHT22;53228;51.380;0.098;2022-09-29T03:50:30;5.90;99.90
66422;DHT22;53228;51.380;0.098;2022-09-29T03:52:57;5.90;99.90
66422;DHT22;53228;51.380;0.098;2022-09-29T03:55:25;5.90;99.90
66422;DHT22;53228;51.380;0.098;2022-09-29T03:57:52;9.60;99.90
66422;DHT22;53228;51.380;0.098;2022-09-29T04:00:20;5.90;99.90
66422;DHT22;53228;51.380;0.098;2022-09-29T04:02:48;5.90;99.90
66422;DHT22;53228;51.380;0.098;2022-09-29T04:05:15;5.90;99.90
66422;DHT22;53228;51.380;0.098;2022-09-29T04:07:44;5.90;99.90
66422;DHT22;53228;51.380;0.098;2022-09-29T04:10:12;8.10;99.90
66422;DHT22;53228;51.380;0.098;2022-09-29T04:12:40;5.90;99.90
66422;DHT22;53228;51.380;0.098;2022-09-29T04:15:08;6.00;99.90
66422;DHT22;53228;51.380;0.098;2022-09-29T04:17:35;5.90;99.90
66422;DHT22;53228;51.380;0.098;2022-09-29T04:20:03;5.90;99.90
66422;DHT22;53228;51.380;0.098;2022-09-29T04:22:30;5.90;99.90
66422;DHT22;53228;51.380;0.098;2022-09-29T04:27:26;5.90;99.90
66422;DHT22;53228;51.380;0.098;2022-09-29T04:29:53;5.80;99.90
66422;DHT22;53228;51.380;0.098;2022-09-29T04:32:21;7.20;99.90
66422;DHT22;53228;51.380;0.098;2022-09-29T04:34:51;5.80;99.90
66422;DHT22;53228;51.380;0.098;2022-09-29T04:37:19;5.80;99.90
66422;DHT22;53228;51.380;0.098;2022-09-29T04:39:46;5.80;99.90
66422;DHT22;53228;51.380;0.098;2022-09-29T04:42:14;6.10;99.90
66422;DHT22;53228;51.380;0.098;2022-09-29T04:44:42;5.70;99.90
66422;DHT22;53228;51.380;0.098;2022-09-29T04:47:09;5.70;99.90
66422;DHT22;53228;51.380;0.098;2022-09-29T04:49:37;5.70;99.90
66422;DHT22;53228;51.380;0.098;2022-09-29T04:52:04;5.80;99.90
66422;DHT22;53228;51.380;0.098;2022-09-29T04:54:33;5.80;99.90
66422;DHT22;53228;51.380;0.098;2022-09-29T04:57:04;5.80;99.90
66422;DHT22;53228;51.380;0.098;2022-09-29T04:59:32;5.90;99.90
66422;DHT22;53228;51.380;0.098;2022-09-29T05:02:00;6.00;99.90
66422;DHT22;53228;51.380;0.098;2022-09-29T05:04:28;5.90;99.90
66422;DHT22;53228;51.380;0.098;2022-09-29T05:06:55;6.00;99.90
66422;DHT22;53228;51.380;0.098;2022-09-29T05:09:23;6.00;99.90
66422;DHT22;53228;51.380;0.098;2022-09-29T05:11:53;6.10;99.90
66422;DHT22;53228;51.380;0.098;2022-09-29T05:14:21;6.20;99.90
66422;DHT22;53228;51.380;0.098;2022-09-29T05:16:48;6.10;99.90
66422;DHT22;53228;51.380;0.098;2022-09-29T05:19:16;6.10;99.90
66422;DHT22;53228;51.380;0.098;2022-09-29T05:21:43;8.00;99.90
66422;DHT22;53228;51.380;0.098;2022-09-29T05:24:13;6.30;99.90
66422;DHT22;53228;51.380;0.098;2022-09-29T05:26:40;6.40;99.90
66422;DHT22;53228;51.380;0.098;2022-09-29T05:29:08;6.40;99.90
66422;DHT22;53228;51.380;0.098;2022-09-29T05:31:36;6.50;99.90
66422;DHT22;53228;51.380;0.098;2022-09-29T05:34:04;6.50;99.90
66422;DHT22;53228;51.380;0.098;2022-09-29T05:36:32;6.70;99.90
66422;DHT22;53228;51.380;0.098;2022-09-29T05:38:59;6.70;99.90
66422;DHT22;53228;51.380;0.098;2022-09-29T05:41:27;6.70;99.90
66422;DHT22;53228;51.380;0.098;2022-09-29T05:43:55;7.50;99.90
66422;DHT22;53228;51.380;0.098;2022-09-29T05:46:22;6.70;99.90
66422;DHT22;53228;51.380;0.098;2022-09-29T05:48:50;6.70;99.90
66422;DHT22;53228;51.380;0.098;2022-09-29T05:51:20;5.40;99.90
66422;DHT22;53228;51.380;0.098;2022-09-29T05:53:50;6.90;99.90
66422;DHT22;53228;51.380;0.098;2022-09-29T05:56:21;6.90;99.90
66422;DHT22;53228;51.380;0.098;2022-09-29T05:58:48;7.90;99.90
66422;DHT22;53228;51.380;0.098;2022-09-29T06:01:19;7.00;99.90
66422;DHT22;53228;51.380;0.098;2022-09-29T06:03:47;7.80;99.90
66422;DHT22;53228;51.380;0.098;2022-09-29T06:06:20;7.00;99.90
66422;DHT22;53228;51.380;0.098;2022-09-29T06:08:48;6.90;99.90
66422;DHT22;53228;51.380;0.098;2022-09-29T06:11:22;9.20;99.90
66422;DHT22;53228;51.380;0.098;2022-09-29T06:13:51;7.10;99.90
66422;DHT22;53228;51.380;0.098;2022-09-29T06:16:21;7.10;99.90
66422;DHT22;53228;51.380;0.098;2022-09-29T06:18:50;7.20;99.90
66422;DHT22;53228;51.380;0.098;2022-09-29T06:21:22;8.40;99.90
66422;DHT22;53228;51.380;0.098;2022-09-29T06:23:52;7.10;99.90
66422;DHT22;53228;51.380;0.098;2022-09-29T06:26:21;7.40;99.90
66422;DHT22;53228;51.380;0.098;2022-09-29T06:28:54;7.40;99.90
66422;DHT22;53228;51.380;0.098;2022-09-29T06:31:25;7.40;99.90
66422;DHT22;53228;51.380;0.098;2022-09-29T06:33:56;7.50;99.90
66422;DHT22;53228;51.380;0.098;2022-09-29T06:36:34;7.60;99.90
66422;DHT22;53228;51.380;0.098;2022-09-29T06:39:21;7.70;99.90
66422;DHT22;53228;51.380;0.098;2022-09-29T06:41:49;7.80;99.90
66422;DHT22;53228;51.380;0.098;2022-09-29T06:44:24;7.90;99.90
66422;DHT22;53228;51.380;0.098;2022-09-29T06:46:52;8.00;99.90
66422;DHT22;53228;51.380;0.098;2022-09-29T06:49:20;8.00;99.90
66422;DHT22;53228;51.380;0.098;2022-09-29T06:51:49;8.20;99.90
66422;DHT22;53228;51.380;0.098;2022-09-29T06:54:18;8.30;99.90
66422;DHT22;53228;51.380;0.098;2022-09-29T06:56:47;8.40;99.90
66422;DHT22;53228;51.380;0.098;2022-09-29T06:59:16;8.50;99.90
66422;DHT22;53228;51.380;0.098;2022-09-29T07:01:43;8.50;99.90
66422;DHT22;53228;51.380;0.098;2022-09-29T07:04:19;10.80;99.90
66422;DHT22;53228;51.380;0.098;2022-09-29T07:06:48;8.70;99.90
66422;DHT22;53228;51.380;0.098;2022-09-29T07:09:16;9.70;99.90
66422;DHT22;53228;51.380;0.098;2022-09-29T07:11:46;8.70;99.90
66422;DHT22;53228;51.380;0.098;2022-09-29T07:14:18;8.80;99.90
66422;DHT22;53228;51.380;0.098;2022-09-29T07:16:47;8.80;99.90
66422;DHT22;53228;51.380;0.098;2022-09-29T07:19:15;8.90;99.90
66422;DHT22;53228;51.380;0.098;2022-09-29T07:21:45;9.00;99.90
66422;DHT22;53228;51.380;0.098;2022-09-29T07:24:14;9.00;99.90
66422;DHT22;53228;51.380;0.098;2022-09-29T07:26:42;9.10;99.90
66422;DHT22;53228;51.380;0.098;2022-09-29T07:29:10;9.20;99.90
66422;DHT22;53228;51.380;0.098;2022-09-29T07:31:43;9.30;99.90
66422;DHT22;53228;51.380;0.098;2022-09-29T07:34:19;9.50;99.90
66422;DHT22;53228;51.380;0.098;2022-09-29T07:36:48;9.80;99.90
66422;DHT22;53228;51.380;0.098;2022-09-29T07:39:16;9.90;99.90
66422;DHT22;53228;51.380;0.098;2022-09-29T07:41:44;10.10;99.90
66422;DHT22;53228;51.380;0.098;2022-09-29T07:44:11;10.50;99.90
66422;DHT22;53228;51.380;0.098;2022-09-29T07:46:39;10.70;99.90
66422;DHT22;53228;51.380;0.098;2022-09-29T07:49:07;10.70;99.90
66422;DHT22;53228;51.380;0.098;2022-09-29T07:51:34;10.90;99.90
66422;DHT22;53228;51.380;0.098;2022-09-29T07:54:03;11.20;99.90
66422;DHT22;53228;51.380;0.098;2022-09-29T07:56:31;11.20;99.90
66422;DHT22;53228;51.380;0.098;2022-09-29T07:58:59;11.30;99.90
66422;DHT22;53228;51.380;0.098;2022-09-29T08:01:29;11.40;99.90
66422;DHT22;53228;51.380;0.098;2022-09-29T08:03:58;11.40;99.90
66422;DHT22;53228;51.380;0.098;2022-09-29T08:06:27;11.40;99.90
66422;DHT22;53228;51.380;0.098;2022-09-29T08:08:54;11.30;99.90
66422;DHT22;53228;51.380;0.098;2022-09-29T08:11:32;11.30;99.90
66422;DHT22;53228;51.380;0.098;2022-09-29T08:14:01;11.20;99.90
66422;DHT22;53228;51.380;0.098;2022-09-29T08:16:29;11.10;99.90
66422;DHT22;53228;51.380;0.098;2022-09-29T08:18:58;11.00;99.90
66422;DHT22;53228;51.380;0.098;2022-09-29T08:21:27;11.00;99.90
66422;DHT22;53228;51.380;0.098;2022-09-29T08:23:56;11.00;99.90
66422;DHT22;53228;51.380;0.098;2022-09-29T08:26:23;10.90;99.90
66422;DHT22;53228;51.380;0.098;2022-09-29T08:29:07;11.00;99.90
66422;DHT22;53228;51.380;0.098;2022-09-29T08:31:36;11.00;99.90
66422;DHT22;53228;51.380;0.098;2022-09-29T08:34:06;11.00;99.90
66422;DHT22;53228;51.380;0.098;2022-09-29T08:36:34;11.00;99.90
66422;DHT22;53228;51.380;0.098;2022-09-29T08:39:03;11.10;99.90
66422;DHT22;53228;51.380;0.098;2022-09-29T08:50:26;11.20;99.90
66422;DHT22;53228;51.380;0.098;2022-09-29T08:52:57;11.30;99.90
66422;DHT22;53228;51.380;0.098;2022-09-29T08:55:46;11.30;99.90
66422;DHT22;53228;51.380;0.098;2022-09-29T08:58:16;11.40;99.90
66422;DHT22;53228;51.380;0.098;2022-09-29T09:06:21;11.70;99.90
66422;DHT22;53228;51.380;0.098;2022-09-29T09:09:25;11.80;99.90
66422;DHT22;53228;51.380;0.098;2022-09-29T09:12:21;11.80;99.90
66422;DHT22;53228;51.380;0.098;2022-09-29T09:20:47;12.00;99.90
66422;DHT22;53228;51.380;0.098;2022-09-29T09:25:56;12.10;99.90
66422;DHT22;53228;51.380;0.098;2022-09-29T09:28:35;13.10;99.90
66422;DHT22;53228;51.380;0.098;2022-09-29T09:31:19;12.50;99.90
66422;DHT22;53228;51.380;0.098;2022-09-29T09:33:56;12.50;99.90
66422;DHT22;53228;51.380;0.098;2022-09-29T09:36:36;12.60;99.90
66422;DHT22;53228;51.380;0.098;2022-09-29T09:39:11;12.70;99.90
66422;DHT22;53228;51.380;0.098;2022-09-29T09:41:42;12.70;99.90
66422;DHT22;53228;51.380;0.098;2022-09-29T09:44:33;12.80;99.90
66422;DHT22;53228;51.380;0.098;2022-09-29T09:47:23;12.80;99.90
66422;DHT22;53228;51.380;0.098;2022-09-29T09:50:16;12.90;99.90
66422;DHT22;53228;51.380;0.098;2022-09-29T09:53:02;12.90;99.90
66422;DHT22;53228;51.380;0.098;2022-09-29T09:55:31;13.10;99.90
66422;DHT22;53228;51.380;0.098;2022-09-29T09:58:09;13.10;99.90
66422;DHT22;53228;51.380;0.098;2022-09-29T10:00:45;13.20;99.90
66422;DHT22;53228;51.380;0.098;2022-09-29T10:03:14;13.20;99.90
66422;DHT22;53228;51.380;0.098;2022-09-29T10:05:47;13.30;99.90
66422;DHT22;53228;51.380;0.098;2022-09-29T10:08:23;13.40;99.90
66422;DHT22;53228;51.380;0.098;2022-09-29T10:10:55;13.40;99.90
66422;DHT22;53228;51.380;0.098;2022-09-29T10:13:28;13.50;99.90
66422;DHT22;53228;51.380;0.098;2022-09-29T10:16:07;13.60;99.90
66422;DHT22;53228;51.380;0.098;2022-09-29T10:18:45;13.70;99.90
66422;DHT22;53228;51.380;0.098;2022-09-29T10:21:33;13.80;99.90
66422;DHT22;53228;51.380;0.098;2022-09-29T10:24:03;13.90;99.90
66422;DHT22;53228;51.380;0.098;2022-09-29T10:26:38;14.10;99.90
66422;DHT22;53228;51.380;0.098;2022-09-29T10:29:32;14.30;99.90
66422;DHT22;53228;51.380;0.098;2022-09-29T10:32:13;14.40;99.90
66422;DHT22;53228;51.380;0.098;2022-09-29T10:34:48;14.80;99.90
66422;DHT22;53228;51.380;0.098;2022-09-29T10:37:38;14.80;99.90
66422;DHT22;53228;51.380;0.098;2022-09-29T10:42:39;14.70;99.90
66422;DHT22;53228;51.380;0.098;2022-09-29T10:45:15;14.70;99.90
66422;DHT22;53228;51.380;0.098;2022-09-29T10:50:36;14.80;99.90
66422;DHT22;53228;51.380;0.098;2022-09-29T10:53:18;14.90;99.90
66422;DHT22;53228;51.380;0.098;2022-09-29T10:55:50;15.00;99.90
66422;DHT22;53228;51.380;0.098;2022-09-29T10:58:27;15.00;99.90
66422;DHT22;53228;51.380;0.098;2022-09-29T11:01:17;15.20;99.90
66422;DHT22;53228;51.380;0.098;2022-09-29T11:03:50;15.30;99.90
66422;DHT22;53228;51.380;0.098;2022-09-29T11:06:34;15.40;99.90
66422;DHT22;53228;51.380;0.098;2022-09-29T11:09:28;15.40;99.90
66422;DHT22;53228;51.380;0.098;2022-09-29T11:11:58;15.20;99.90
66422;DHT22;53228;51.380;0.098;2022-09-29T11:19:54;15.50;99.90
66422;DHT22;53228;51.380;0.098;2022-09-29T11:28:20;15.60;99.90
66422;DHT22;53228;51.380;0.098;2022-09-29T11:36:52;15.50;99.90
66422;DHT22;53228;51.380;0.098;2022-09-29T11:42:09;15.50;99.90
66422;DHT22;53228;51.380;0.098;2022-09-29T11:50:40;15.70;99.90
66422;DHT22;53228;51.380;0.098;2022-09-29T12:04:37;16.10;99.90
66422;DHT22;53228;51.380;0.098;2022-09-29T12:07:37;16.30;99.90
66422;DHT22;53228;51.380;0.098;2022-09-29T12:10:43;16.30;99.90
66422;DHT22;53228;51.380;0.098;2022-09-29T12:16:15;15.90;99.90
66422;DHT22;53228;51.380;0.098;2022-09-29T12:21:30;15.50;99.90
66422;DHT22;53228;51.380;0.098;2022-09-29T12:24:01;15.40;99.90
66422;DHT22;53228;51.380;0.098;2022-09-29T12:26:32;15.20;99.90
66422;DHT22;53228;51.380;0.098;2022-09-29T12:31:46;15.20;99.90
66422;DHT22;53228;51.380;0.098;2022-09-29T12:34:21;15.20;99.90
66422;DHT22;53228;51.380;0.098;2022-09-29T12:37:10;15.30;99.90
66422;DHT22;53228;51.380;0.098;2022-09-29T12:42:26;15.30;99.90
66422;DHT22;53228;51.380;0.098;2022-09-29T12:51:11;15.60;99.90
66422;DHT22;53228;51.380;0.098;2022-09-29T12:53:17;15.60;99.90
66422;DHT22;53228;51.380;0.098;2022-09-29T12:56:00;15.90;99.90
66422;DHT22;53228;51.380;0.098;2022-09-29T12:58:45;15.90;99.90
66422;DHT22;53228;51.380;0.098;2022-09-29T13:01:21;16.00;99.90
66422;DHT22;53228;51.380;0.098;2022-09-29T13:09:55;16.20;99.90
66422;DHT22;53228;51.380;0.098;2022-09-29T13:15:21;16.40;99.90
66422;DHT22;53228;51.380;0.098;2022-09-29T13:17:57;16.50;99.90
66422;DHT22;53228;51.380;0.098;2022-09-29T13:20:47;16.60;99.90
66422;DHT22;53228;51.380;0.098;2022-09-29T13:23:27;16.70;99.90
66422;DHT22;53228;51.380;0.098;2022-09-29T13:28:52;16.70;99.90
66422;DHT22;53228;51.380;0.098;2022-09-29T13:31:28;16.60;99.90
66422;DHT22;53228;51.380;0.098;2022-09-29T13:34:01;16.50;99.90
66422;DHT22;53228;51.380;0.098;2022-09-29T13:36:38;16.20;99.40
66422;DHT22;53228;51.380;0.098;2022-09-29T13:39:21;16.00;99.90
66422;DHT22;53228;51.380;0.098;2022-09-29T13:41:52;15.90;99.80
66422;DHT22;53228;51.380;0.098;2022-09-29T13:44:24;15.70;99.90
66422;DHT22;53228;51.380;0.098;2022-09-29T13:46:54;15.50;99.90
66422;DHT22;53228;51.380;0.098;2022-09-29T13:49:26;15.50;99.90
66422;DHT22;53228;51.380;0.098;2022-09-29T13:51:57;15.70;99.90
66422;DHT22;53228;51.380;0.098;2022-09-29T13:59:27;16.20;99.90
66422;DHT22;53228;51.380;0.098;2022-09-29T14:01:56;18.60;99.90
66422;DHT22;53228;51.380;0.098;2022-09-29T14:07:15;20.60;95.20
66422;DHT22;53228;51.380;0.098;2022-09-29T14:10:16;20.60;95.60
66422;DHT22;53228;51.380;0.098;2022-09-29T14:12:47;21.00;92.00
66422;DHT22;53228;51.380;0.098;2022-09-29T14:17:58;20.90;92.10
66422;DHT22;53228;51.380;0.098;2022-09-29T14:20:31;20.10;88.60
66422;DHT22;53228;51.380;0.098;2022-09-29T14:23:04;19.40;90.10
66422;DHT22;53228;51.380;0.098;2022-09-29T14:25:48;18.80;90.10
66422;DHT22;53228;51.380;0.098;2022-09-29T14:28:26;18.10;90.90
66422;DHT22;53228;51.380;0.098;2022-09-29T14:30:59;17.60;91.90
66422;DHT22;53228;51.380;0.098;2022-09-29T14:33:36;17.30;92.90
66422;DHT22;53228;51.380;0.098;2022-09-29T14:36:09;17.10;93.50
66422;DHT22;53228;51.380;0.098;2022-09-29T14:38:44;17.00;93.80
66422;DHT22;53228;51.380;0.098;2022-09-29T14:41:43;16.80;93.60
66422;DHT22;53228;51.380;0.098;2022-09-29T14:44:33;16.60;94.00
66422;DHT22;53228;51.380;0.098;2022-09-29T14:56:04;19.50;91.10
66422;DHT22;53228;51.380;0.098;2022-09-29T14:58:46;20.00;86.90
66422;DHT22;53228;51.380;0.098;2022-09-29T15:01:25;20.20;83.20
66422;DHT22;53228;51.380;0.098;2022-09-29T15:04:05;20.50;85.00
66422;DHT22;53228;51.380;0.098;2022-09-29T15:06:34;20.60;85.80
66422;DHT22;53228;51.380;0.098;2022-09-29T15:09:16;20.70;83.30
66422;DHT22;53228;51.380;0.098;2022-09-29T15:11:49;21.00;83.50
66422;DHT22;53228;51.380;0.098;2022-09-29T15:14:22;21.30;83.40
66422;DHT22;53228;51.380;0.098;2022-09-29T15:17:16;21.40;81.50
66422;DHT22;53228;51.380;0.098;2022-09-29T15:20:50;21.10;82.30
66422;DHT22;53228;51.380;0.098;2022-09-29T15:25:57;20.50;81.80
66422;DHT22;53228;51.380;0.098;2022-09-29T15:28:32;20.20;83.40
66422;DHT22;53228;51.380;0.098;2022-09-29T15:31:07;19.80;82.30
66422;DHT22;53228;51.380;0.098;2022-09-29T15:33:39;19.30;82.10
66422;DHT22;53228;51.380;0.098;2022-09-29T15:36:24;18.80;83.40
66422;DHT22;53228;51.380;0.098;2022-09-29T15:38:54;18.50;84.80
66422;DHT22;53228;51.380;0.098;2022-09-29T15:41:24;18.10;85.50
66422;DHT22;53228;51.380;0.098;2022-09-29T15:44:14;17.80;85.60
66422;DHT22;53228;51.380;0.098;2022-09-29T15:46:55;17.30;87.30
66422;DHT22;53228;51.380;0.098;2022-09-29T15:49:28;17.20;87.70
66422;DHT22;53228;51.380;0.098;2022-09-29T15:52:02;17.00;89.10
66422;DHT22;53228;51.380;0.098;2022-09-29T15:54:41;16.70;89.80
66422;DHT22;53228;51.380;0.098;2022-09-29T15:57:29;16.50;90.10
66422;DHT22;53228;51.380;0.098;2022-09-29T16:05:37;16.20;91.10
66422;DHT22;53228;51.380;0.098;2022-09-29T16:08:18;16.10;91.40
66422;DHT22;53228;51.380;0.098;2022-09-29T16:11:24;16.00;91.70
66422;DHT22;53228;51.380;0.098;2022-09-29T16:16:43;15.80;92.00
66422;DHT22;53228;51.380;0.098;2022-09-29T16:19:15;15.80;92.10
66422;DHT22;53228;51.380;0.098;2022-09-29T16:21:49;15.60;92.40
66422;DHT22;53228;51.380;0.098;2022-09-29T16:24:19;15.60;92.70
66422;DHT22;53228;51.380;0.098;2022-09-29T16:26:54;15.50;92.80
66422;DHT22;53228;51.380;0.098;2022-09-29T16:29:32;15.50;92.90
66422;DHT22;53228;51.380;0.098;2022-09-29T16:38:29;15.20;93.50
66422;DHT22;53228;51.380;0.098;2022-09-29T16:41:25;15.10;93.60
66422;DHT22;53228;51.380;0.098;2022-09-29T16:46:43;15.00;93.50
66422;DHT22;53228;51.380;0.098;2022-09-29T16:49:18;15.00;93.90
66422;DHT22;53228;51.380;0.098;2022-09-29T16:51:48;14.90;94.20
66422;DHT22;53228;51.380;0.098;2022-09-29T16:54:27;14.90;94.20
66422;DHT22;53228;51.380;0.098;2022-09-29T16:59:44;14.70;95.10
66422;DHT22;53228;51.380;0.098;2022-09-29T17:02:13;14.60;95.20
66422;DHT22;53228;51.380;0.098;2022-09-29T17:04:40;14.50;95.00
66422;DHT22;53228;51.380;0.098;2022-09-29T17:07:12;14.50;95.40
66422;DHT22;53228;51.380;0.098;2022-09-29T17:09:46;14.40;95.60
66422;DHT22;53228;51.380;0.098;2022-09-29T17:35:04;13.40;98.90
66422;DHT22;53228;51.380;0.098;2022-09-29T17:40:22;15.90;99.90
66422;DHT22;53228;51.380;0.098;2022-09-29T17:42:51;13.20;99.90
66422;DHT22;53228;51.380;0.098;2022-09-29T17:45:19;13.10;99.90
66422;DHT22;53228;51.380;0.098;2022-09-29T17:47:47;13.10;99.90
66422;DHT22;53228;51.380;0.098;2022-09-29T17:50:33;13.00;99.90
66422;DHT22;53228;51.380;0.098;2022-09-29T17:53:04;13.00;99.90
66422;DHT22;53228;51.380;0.098;2022-09-29T17:55:33;12.80;99.90
66422;DHT22;53228;51.380;0.098;2022-09-29T17:58:00;12.80;99.90
66422;DHT22;53228;51.380;0.098;2022-09-29T18:00:35;12.80;99.90
66422;DHT22;53228;51.380;0.098;2022-09-29T18:03:09;12.70;99.90
66422;DHT22;53228;51.380;0.098;2022-09-29T18:05:41;12.60;99.90
66422;DHT22;53228;51.380;0.098;2022-09-29T18:08:17;12.60;99.90
66422;DHT22;53228;51.380;0.098;2022-09-29T18:10:51;12.40;99.90
66422;DHT22;53228;51.380;0.098;2022-09-29T18:13:21;12.40;99.90
66422;DHT22;53228;51.380;0.098;2022-09-29T18:15:49;12.40;99.90
66422;DHT22;53228;51.380;0.098;2022-09-29T18:18:19;12.30;99.90
66422;DHT22;53228;51.380;0.098;2022-09-29T18:20:48;12.20;99.90
66422;DHT22;53228;51.380;0.098;2022-09-29T18:23:17;12.20;99.90
66422;DHT22;53228;51.380;0.098;2022-09-29T18:25:48;12.20;99.90
66422;DHT22;53228;51.380;0.098;2022-09-29T18:28:17;12.20;99.90
66422;DHT22;53228;51.380;0.098;2022-09-29T18:30:47;12.10;99.90
66422;DHT22;53228;51.380;0.098;2022-09-29T18:33:18;12.10;99.90
66422;DHT22;53228;51.380;0.098;2022-09-29T18:35:51;12.00;99.90
66422;DHT22;53228;51.380;0.098;2022-09-29T18:40:53;12.00;99.90
66422;DHT22;53228;51.380;0.098;2022-09-29T18:43:23;11.90;99.90
66422;DHT22;53228;51.380;0.098;2022-09-29T18:45:54;11.00;99.90
66422;DHT22;53228;51.380;0.098;2022-09-29T18:48:22;11.80;99.90
66422;DHT22;53228;51.380;0.098;2022-09-29T18:50:51;11.80;99.90
66422;DHT22;53228;51.380;0.098;2022-09-29T18:53:20;11.80;99.90
66422;DHT22;53228;51.380;0.098;2022-09-29T18:55:48;11.70;99.90
66422;DHT22;53228;51.380;0.098;2022-09-29T18:58:19;11.70;99.90
66422;DHT22;53228;51.380;0.098;2022-09-29T19:00:49;11.60;99.90
66422;DHT22;53228;51.380;0.098;2022-09-29T19:03:17;11.50;99.90
66422;DHT22;53228;51.380;0.098;2022-09-29T19:05:46;11.40;99.90
66422;DHT22;53228;51.380;0.098;2022-09-29T19:08:16;11.40;99.90
66422;DHT22;53228;51.380;0.098;2022-09-29T19:10:52;11.30;99.90
66422;DHT22;53228;51.380;0.098;2022-09-29T19:15:55;11.20;99.90
66422;DHT22;53228;51.380;0.098;2022-09-29T19:18:24;11.10;99.90
66422;DHT22;53228;51.380;0.098;2022-09-29T19:20:56;11.10;99.90
66422;DHT22;53228;51.380;0.098;2022-09-29T19:23:26;11.00;99.90
66422;DHT22;53228;51.380;0.098;2022-09-29T19:25:54;11.10;99.90
66422;DHT22;53228;51.380;0.098;2022-09-29T19:28:25;11.00;99.90
66422;DHT22;53228;51.380;0.098;2022-09-29T19:30:54;11.00;99.90
66422;DHT22;53228;51.380;0.098;2022-09-29T19:33:29;11.00;99.90
66422;DHT22;53228;51.380;0.098;2022-09-29T19:36:01;11.70;99.90
66422;DHT22;53228;51.380;0.098;2022-09-29T19:38:31;10.90;99.90
66422;DHT22;53228;51.380;0.098;2022-09-29T19:40:59;11.00;99.90